Date,TemperatureHighF,TemperatureAvgF,TemperatureLowF,DewpointHighF,DewpointAvgF,DewpointLowF,HumidityHigh,HumidityAvg,HumidityLow,PressureMaxIn,PressureMinIn,WindSpeedMaxMPH,WindSpeedAvgMPH,GustSpeedMaxMPH,PrecipitationSumIn
2013-2-17,50.7,36.0,28.8,26.5,21.8,15.8,100,61,31,30.04,29.90,8,5,17,0.00
2013-2-18,58.1,32.0,17.2,26.6,17.9,11.1,81,59,27,30.10,29.90,8,3,13,0.00
2013-2-19,60.4,32.7,24.3,24.7,16.9,12.7,100,55,24,29.90,29.72,7,2,12,0.00
2013-2-20,45.9,29.2,19.2,28.5,18.5,10.0,100,66,40,29.93,29.81,6,1,12,0.00
2013-2-21,44.1,26.0,12.0,19.4,11.8,8.1,100,59,29,29.99,29.90,13,4,19,0.00
2013-2-22,49.1,39.8,28.0,20.9,16.8,14.4,100,41,30,29.93,29.66,14,6,22,0.00
2013-2-23,39.7,33.4,25.5,25.9,14.9,9.8,100,48,31,30.07,29.63,12,5,22,0.00
2013-2-24,48.4,31.1,17.6,19.0,12.3,7.4,100,49,28,30.16,30.07,15,6,24,0.00
2013-2-25,45.9,36.1,26.4,20.7,15.3,9.9,100,44,33,29.99,29.87,12,4,17,0.00
2013-2-26,51.3,33.1,20.8,20.2,13.2,7.2,64,45,27,30.22,29.95,12,4,22,0.00
2013-2-27,44.2,25.2,14.7,16.9,11.6,5.7,100,58,29,30.25,30.16,5,2,9,0.00
2013-2-28,54.0,35.7,22.6,25.6,19.4,11.0,70,53,32,30.28,30.22,14,4,19,0.00
2013-3-1,64.6,46.3,34.0,32.3,29.1,25.7,77,53,29,30.28,30.25,14,6,20,0.00
2013-3-2,72.0,44.1,26.4,34.7,26.2,20.5,83,54,23,30.31,29.90,9,2,13,0.00
2013-3-3,48.7,37.2,24.6,32.6,20.6,8.3,84,55,25,30.07,29.75,22,7,34,0.00
2013-3-4,50.2,25.8,13.6,19.3,11.6,4.4,100,59,27,30.31,30.07,7,2,12,0.00
2013-3-5,49.1,25.3,8.2,19.0,13.1,7.9,100,67,29,30.22,29.99,6,2,8,0.00
2013-3-6,53.4,31.8,22.3,33.0,22.9,15.4,97,72,35,29.99,29.72,9,2,16,0.00
2013-3-7,62.4,37.8,24.6,37.1,23.9,15.1,100,66,24,30.04,29.81,11,3,19,0.00
2013-3-8,68.0,36.1,16.7,27.7,16.4,7.3,100,52,18,30.04,29.87,6,2,9,0.00
2013-3-9,65.8,36.2,16.7,26.5,15.9,7.0,100,48,20,30.25,29.99,7,3,14,0.00
2013-3-10,60.3,39.2,24.6,24.4,19.1,14.5,73,47,24,30.28,30.07,14,6,20,0.00
2013-3-11,43.3,36.0,22.1,22.6,18.2,12.1,66,49,40,30.28,30.07,12,5,21,0.00
2013-3-12,59.7,35.1,18.5,27.2,19.7,10.0,100,58,26,30.28,30.04,15,3,23,0.00
2013-3-13,65.5,49.1,34.5,28.7,25.9,22.6,69,43,24,30.16,30.10,14,5,22,0.00
2013-3-14,72.9,45.7,29.8,34.3,26.5,21.9,77,51,23,30.19,29.95,7,1,10,0.00
2013-3-15,64.0,47.5,31.8,34.8,25.5,19.3,78,45,25,30.07,29.99,13,5,27,0.00
2013-3-16,59.9,44.4,34.5,31.0,23.5,17.5,68,46,25,30.04,29.69,14,4,20,0.00
2013-3-17,44.8,32.5,19.8,29.2,17.4,9.8,83,55,30,29.99,29.60,16,6,28,0.00
2013-3-18,48.7,26.7,8.8,24.9,15.7,7.3,100,69,29,30.01,29.90,21,5,29,0.00
2013-3-19,61.5,33.7,16.3,23.8,14.8,7.4,100,53,19,30.22,30.01,9,2,12,0.00
2013-3-20,72.3,41.6,21.4,33.5,20.1,8.1,60,44,23,30.07,29.57,11,4,20,0.00
2013-3-21,44.8,36.1,21.9,20.0,12.5,4.3,100,40,28,29.95,29.69,23,8,29,0.00
2013-3-22,38.8,26.3,16.5,16.0,9.5,5.6,65,50,34,30.19,29.93,8,4,13,0.00
2013-3-23,50.9,23.9,10.2,17.2,9.5,2.7,100,61,24,30.28,30.19,8,3,13,0.00
2013-3-24,59.2,27.1,7.3,18.6,9.9,1.1,100,58,19,30.28,30.16,7,2,10,0.00
2013-3-25,59.7,31.1,9.1,20.0,11.1,-1.0,100,53,19,30.19,29.99,10,3,20,0.00
2013-3-26,70.9,43.0,27.9,29.0,17.3,9.7,49,37,20,30.01,29.93,5,2,9,0.00
2013-3-27,72.9,39.9,21.4,30.7,19.9,11.2,71,48,21,30.04,29.95,6,2,9,0.00
2013-3-28,76.3,48.1,25.5,35.2,29.4,19.7,100,54,21,30.10,29.99,8,3,12,0.00
2013-3-29,66.2,47.7,34.9,35.9,29.4,21.8,80,52,26,30.19,30.10,9,3,18,0.00
2013-3-30,71.2,46.7,27.7,34.5,24.7,16.1,80,47,22,30.25,30.10,12,3,19,0.00
2013-3-31,70.3,45.5,26.2,31.0,23.1,16.7,75,45,23,30.13,30.07,7,3,10,0.00
2013-4-1,82.4,47.2,24.8,36.0,23.5,17.1,100,45,16,30.13,29.99,5,2,7,0.00
2013-4-2,79.5,49.0,23.9,36.1,24.8,15.2,100,44,20,30.10,29.95,11,2,16,0.00
2013-4-3,78.1,54.9,40.6,35.0,29.4,25.8,61,39,21,30.10,30.01,7,3,11,0.00
2013-4-4,75.6,52.2,36.3,41.6,31.7,25.5,70,49,23,30.07,29.81,12,3,20,0.00
2013-4-5,69.6,52.6,38.3,41.0,31.0,24.6,84,47,23,29.93,29.81,15,6,28,0.00
2013-4-6,60.8,47.9,37.6,37.0,29.1,25.1,65,49,34,29.93,29.84,12,5,21,0.00
2013-4-7,58.3,41.6,30.6,37.1,29.8,22.3,87,65,38,29.90,29.63,8,3,13,0.04
2013-4-8,33.4,26.8,20.7,21.8,12.7,7.5,100,57,40,30.28,29.87,10,6,14,0.00
2013-4-9,59.9,31.7,13.1,23.0,12.8,5.7,100,51,24,30.37,30.19,6,2,10,0.00
2013-4-10,66.2,42.9,23.2,37.5,25.0,10.6,100,52,28,30.19,29.81,13,3,19,0.00
2013-4-11,56.3,45.0,32.2,31.1,24.0,16.9,100,47,28,30.01,29.87,11,5,25,0.00
2013-4-12,65.1,43.9,24.4,28.4,22.8,16.4,77,47,25,30.10,29.66,8,3,11,0.00
2013-4-13,52.5,41.9,28.8,33.7,20.9,12.9,80,45,26,29.75,29.51,17,6,24,0.00
2013-4-14,41.7,32.0,23.0,23.4,17.0,11.3,100,56,40,30.01,29.75,8,4,14,0.00
2013-4-15,41.2,27.9,20.3,16.2,12.8,9.7,100,55,35,30.16,29.99,7,4,13,0.00
2013-4-16,42.8,29.1,19.2,17.3,13.1,9.7,100,53,32,30.28,30.13,7,4,12,0.00
2013-4-17,54.9,32.2,15.3,19.7,14.4,5.3,100,54,25,30.31,30.22,6,3,12,0.00
2013-4-18,63.5,41.0,12.6,26.0,18.2,3.9,100,46,24,30.22,30.13,8,4,16,0.00
2013-4-19,58.3,46.1,36.7,32.0,25.7,15.7,62,45,35,30.16,29.87,13,5,22,0.00
2013-4-20,66.0,54.2,44.2,30.2,25.1,20.3,100,34,26,30.04,29.93,19,7,25,0.00
2013-4-21,42.8,31.1,24.8,27.7,20.0,14.0,100,64,43,30.25,30.04,9,5,13,0.00
2013-4-22,56.5,33.6,21.6,19.4,12.8,1.6,100,46,19,30.37,30.25,7,3,9,0.00
2013-4-23,60.3,34.5,12.6,23.4,15.2,2.9,100,50,24,30.31,30.13,8,3,15,0.00
2013-4-24,65.1,44.5,23.5,26.4,20.2,13.1,100,42,23,30.28,29.95,15,5,23,0.00
2013-4-25,72.9,55.1,43.3,30.6,23.4,17.5,41,30,18,30.04,29.87,14,6,23,0.00
2013-4-26,76.5,54.6,31.6,33.6,26.4,17.6,64,37,21,30.16,30.04,14,6,23,0.00
2013-4-27,74.8,65.4,45.3,33.4,29.0,23.5,59,27,18,30.10,29.95,22,10,30,0.00
2013-4-28,68.0,54.7,45.7,34.3,28.9,20.2,100,39,23,30.07,29.87,20,6,28,0.00
2013-4-29,60.1,48.6,37.4,32.9,22.4,11.5,53,37,24,29.87,29.63,23,10,36,0.00
2013-4-30,50.2,36.7,27.7,26.6,19.1,11.5,70,50,35,30.25,29.87,9,4,15,0.00
2013-5-1,58.5,38.2,21.6,22.3,16.0,8.0,70,44,24,30.55,30.25,10,4,15,0.00
2013-5-2,73.0,46.6,20.3,31.5,17.9,7.5,100,37,16,30.58,30.25,11,4,20,0.00
2013-5-3,61.9,48.6,39.4,39.7,28.8,14.3,80,48,31,30.28,30.19,7,3,13,0.00
2013-5-4,67.1,50.9,41.9,40.9,37.0,32.1,85,62,34,30.31,30.22,6,3,11,0.00
2013-5-5,82.2,54.5,30.4,41.7,33.7,27.0,89,53,20,30.22,30.01,5,2,10,0.00
2013-5-6,87.6,58.7,34.0,39.4,32.8,25.0,100,45,16,30.07,29.87,5,2,8,0.00
2013-5-7,74.5,57.5,37.0,38.5,32.2,26.1,71,41,24,30.10,29.93,8,3,14,0.00
2013-5-8,87.8,63.6,43.5,40.9,34.6,29.1,59,36,18,30.16,30.04,6,3,10,0.00
2013-5-9,55.2,50.7,46.4,37.8,36.2,34.8,71,58,48,30.16,30.10,4,1,5,0.00
2013-5-10,75.9,66.1,54.7,37.6,34.2,30.7,100,34,22,30.40,30.28,7,4,13,0.00
2013-5-11,86.2,71.9,57.2,45.6,37.7,33.8,46,30,20,30.28,30.10,12,3,18,0.00
2013-5-12,87.6,66.2,44.4,50.9,39.8,33.9,72,42,18,30.16,29.95,16,2,22,0.00
2013-5-13,90.9,68.7,51.8,52.3,43.2,35.4,73,44,18,30.07,29.72,15,3,23,0.00
2013-5-14,75.0,59.6,43.2,38.3,30.7,23.6,68,37,18,30.07,29.93,10,4,17,0.00
2013-5-15,75.4,58.5,40.5,39.5,30.5,23.3,58,36,22,30.10,29.93,5,1,12,0.00
2013-5-16,71.1,56.6,43.3,45.9,38.0,31.2,100,53,29,29.95,29.87,6,1,10,0.00
2013-5-17,57.7,50.7,41.4,47.4,42.0,35.4,100,73,47,29.99,29.90,6,1,10,0.08
2013-5-18,67.3,53.8,48.7,50.8,46.3,40.1,94,78,37,30.04,29.95,7,2,12,0.04
2013-5-19,55.6,51.9,48.7,49.3,44.5,40.7,88,76,61,30.19,30.04,8,1,10,0.12
2013-5-20,70.2,54.6,48.9,50.5,46.5,42.9,100,76,38,30.25,30.13,8,2,15,0.12
2013-5-21,77.2,57.1,38.8,51.1,40.3,34.1,93,60,25,30.13,29.78,8,3,14,0.00
2013-5-22,65.1,56.2,45.3,48.4,41.4,34.4,100,59,43,29.93,29.81,9,4,18,0.24
2013-5-23,59.0,45.4,37.8,43.3,38.4,34.9,95,79,45,29.99,29.90,12,3,22,0.59
2013-5-24,68.0,52.4,40.8,47.5,36.9,30.0,93,61,27,30.04,29.90,15,4,22,0.04
2013-5-25,71.1,54.8,41.5,50.8,38.0,31.4,75,54,33,30.04,29.93,7,1,14,0.00
2013-5-26,71.6,52.3,40.3,47.5,41.3,34.3,94,68,38,30.04,29.90,14,2,24,0.28
2013-5-27,68.5,52.3,42.1,57.8,46.5,40.8,97,83,44,29.99,29.84,6,1,10,0.00
2013-5-28,66.4,54.5,50.0,51.4,46.5,42.1,94,76,43,29.84,29.81,7,1,10,0.12
2013-5-29,72.9,56.3,50.2,47.8,44.2,39.4,91,66,37,29.84,29.72,8,2,14,0.16
2013-5-30,61.5,54.1,48.4,44.1,35.5,30.7,77,51,35,30.01,29.81,10,5,20,0.00
2013-5-31,56.1,51.7,45.3,42.6,36.5,31.7,75,56,48,30.31,30.01,6,3,12,0.00
2013-6-1,68.9,53.2,37.0,47.5,39.9,33.5,89,64,34,30.31,30.04,5,1,10,0.00
2013-6-2,63.1,53.3,46.9,50.3,44.9,39.5,90,74,43,30.04,29.90,10,1,17,0.08
2013-6-3,57.4,48.8,45.1,49.5,43.5,38.9,100,83,50,30.19,29.93,7,2,14,0.39
2013-6-4,62.1,49.2,40.5,42.0,38.3,35.4,86,68,40,30.25,30.19,3,0,7,0.00
2013-6-5,77.7,56.5,37.2,50.0,42.5,33.7,91,64,33,30.22,30.01,5,1,10,0.00
2013-6-6,82.8,63.7,45.9,54.3,47.6,41.0,88,59,30,30.13,30.01,4,1,6,0.00
2013-6-7,78.1,59.0,49.6,56.4,48.9,43.6,87,71,30,30.01,29.90,9,1,16,0.00
2013-6-8,79.2,65.2,48.7,52.3,39.0,32.4,83,44,21,30.04,29.93,8,2,17,0.00
2013-6-9,84.6,66.2,45.5,50.9,38.7,25.6,82,42,16,30.01,29.81,14,3,23,0.00
2013-6-10,69.3,51.6,45.0,39.1,33.4,25.5,65,52,27,29.95,29.81,4,1,8,0.00
2013-6-11,66.2,60.3,52.7,53.2,45.3,39.5,100,59,38,30.07,29.84,7,3,11,0.00
2013-6-12,66.2,53.8,46.8,55.8,49.9,44.6,94,87,66,30.10,29.95,5,1,9,0.08
2013-6-13,62.6,55.5,48.9,55.2,46.1,37.8,88,71,49,30.07,29.95,8,2,14,0.00
2013-6-14,66.0,51.4,40.6,47.9,36.8,28.4,90,62,28,30.13,30.04,13,4,21,0.00
2013-6-15,78.1,67.4,39.4,43.3,34.5,29.7,74,31,20,30.16,29.99,7,2,12,0.00
2013-6-16,75.9,61.1,43.2,48.4,41.1,34.4,82,51,31,30.16,30.07,6,2,10,0.00
2013-6-17,84.2,65.0,48.4,58.0,49.0,42.7,85,59,30,30.16,29.95,4,1,9,0.00
2013-6-18,81.1,72.9,63.5,59.4,48.8,39.7,73,44,30,29.95,29.72,7,3,14,0.00
2013-6-19,73.2,60.5,48.7,53.7,49.3,44.0,90,69,46,29.90,29.69,12,4,20,0.16
2013-6-20,66.4,54.1,48.2,50.8,41.1,35.6,83,62,36,30.10,29.84,10,3,15,0.00
2013-6-21,69.8,54.2,42.8,48.8,43.7,36.5,100,70,36,30.10,30.04,7,1,10,0.00
2013-6-22,67.1,55.0,48.7,52.3,45.5,41.4,92,71,48,30.10,29.99,6,2,11,0.28
2013-6-23,76.8,68.1,56.5,54.8,50.2,43.6,89,54,32,29.95,29.81,5,1,9,0.00
2013-6-24,74.7,62.5,51.8,58.1,49.9,44.4,85,65,41,29.81,29.69,5,1,11,0.00
2013-6-25,77.5,64.4,54.5,57.5,48.3,42.0,94,60,31,29.95,29.81,9,3,18,0.00
2013-6-26,77.9,64.1,51.6,57.0,47.5,41.9,86,58,31,30.16,29.95,10,3,19,0.00
2013-6-27,87.8,69.4,51.6,56.2,48.6,44.6,83,52,23,30.25,30.16,12,2,20,0.00
2013-6-28,91.2,72.6,53.6,56.1,49.7,41.8,81,49,21,30.31,30.16,7,1,11,0.00
2013-6-29,93.6,69.9,57.0,61.0,54.7,50.2,82,61,28,30.25,30.10,8,1,15,0.00
2013-6-30,92.7,78.5,60.3,64.7,57.3,51.7,91,52,28,30.19,30.10,4,1,7,0.00
2013-7-1,94.1,75.4,61.7,64.7,58.1,51.1,85,59,26,30.25,30.13,4,1,8,0.00
2013-7-2,95.0,77.5,60.1,63.7,58.5,52.6,85,55,27,30.19,30.01,5,1,10,0.00
2013-7-3,92.8,78.5,60.1,66.5,51.2,37.7,86,46,18,30.07,29.95,10,2,17,0.00
2013-7-4,92.1,76.4,59.0,56.9,48.1,41.8,74,40,20,30.01,29.84,8,2,14,0.00
2013-7-5,83.3,70.5,59.0,54.2,45.6,38.4,78,43,28,29.95,29.84,6,2,10,0.00
2013-7-6,86.4,65.4,53.4,55.1,49.0,42.6,84,61,25,30.01,29.90,6,1,9,0.00
2013-7-7,90.1,72.8,57.9,55.8,49.7,39.8,79,47,20,30.04,29.87,9,2,12,0.00
2013-7-8,81.3,70.1,60.1,58.4,51.2,38.3,79,54,26,30.04,29.95,5,2,10,0.00
2013-7-9,90.0,80.3,66.4,47.7,39.8,33.9,39,24,17,30.16,30.10,6,2,10,0.00
2013-7-10,91.6,65.2,50.4,49.7,42.0,37.5,75,47,17,30.16,29.87,6,1,15,0.00
2013-7-11,86.9,69.6,56.5,53.1,45.6,38.1,71,46,19,30.01,29.84,12,2,21,0.00
2013-7-12,85.8,65.9,49.5,53.2,46.2,38.4,87,55,20,30.01,29.87,9,1,24,0.00
2013-7-13,82.0,68.7,53.6,46.1,40.5,35.1,69,40,20,30.19,29.99,6,2,10,0.00
2013-7-14,89.2,70.4,54.1,52.3,43.1,34.5,69,41,18,30.22,30.01,9,2,13,0.00
2013-7-15,95.9,70.6,50.2,53.0,42.8,35.9,68,41,13,30.13,29.93,12,2,20,0.00
2013-7-16,80.4,68.1,55.2,48.7,44.8,41.7,67,45,30,30.25,30.10,7,3,11,0.00
2013-7-17,87.1,68.7,59.5,67.7,59.5,47.2,92,75,34,30.19,30.01,6,1,13,0.31
2013-7-18,90.3,71.0,56.1,63.6,50.7,36.5,95,60,17,30.22,30.10,8,1,15,0.00
2013-7-19,89.1,71.5,52.3,51.8,42.2,31.5,81,41,15,30.16,30.01,8,1,19,0.00
2013-7-20,92.3,72.7,57.2,56.3,43.6,31.8,69,39,15,30.10,29.90,7,1,12,0.00
2013-7-21,93.7,72.8,50.7,51.7,41.7,30.9,74,37,16,29.99,29.87,9,1,13,0.00
2013-7-22,91.9,71.4,49.6,48.2,39.2,30.9,67,35,15,30.01,29.93,10,2,13,0.00
2013-7-23,93.4,77.4,58.5,57.5,47.8,38.1,68,37,20,30.16,30.01,4,0,10,0.00
2013-7-24,94.6,73.8,52.2,55.3,44.8,31.9,75,41,12,30.16,29.99,7,1,13,0.00
2013-7-25,92.1,75.0,60.4,60.2,50.8,44.4,71,45,24,30.22,30.07,6,1,9,0.00
2013-7-26,93.7,74.6,57.2,57.6,47.6,30.4,80,45,14,30.22,30.01,4,0,10,0.00
2013-7-27,88.7,66.8,56.1,56.1,40.0,29.8,52,39,18,30.07,29.95,6,1,14,0.00
2013-7-28,81.1,75.8,65.7,49.7,45.4,43.0,50,34,30,29.95,29.90,5,2,8,0.00
2013-7-29,68.5,59.6,53.6,50.4,47.7,43.9,87,66,45,30.10,29.95,7,4,12,0.04
2013-8-1,57.7,57.5,57.2,55.7,55.4,54.9,93,92,92,30.04,30.01,4,2,7,0.00
2013-8-2,77.0,61.9,52.9,60.5,51.7,43.9,97,74,32,30.13,29.99,9,2,17,0.20
2013-8-3,80.8,64.4,52.0,57.1,49.2,45.2,84,61,32,30.19,30.07,6,1,10,0.00
2013-8-4,86.4,66.5,51.6,55.2,46.6,38.5,87,54,21,30.16,30.01,5,0,11,0.00
2013-8-5,87.1,66.8,50.0,56.4,45.3,38.1,84,51,20,30.10,29.95,14,2,25,0.00
2013-8-6,82.9,67.3,51.8,56.6,47.6,38.1,86,55,21,30.10,30.01,6,0,10,0.00
2013-8-7,89.8,68.2,50.2,59.1,46.6,38.8,80,51,17,30.10,29.95,8,1,10,0.00
2013-8-8,83.8,73.2,60.6,54.1,48.8,44.7,69,44,29,30.13,30.04,5,2,10,0.00
2013-8-9,80.2,67.0,59.9,60.8,53.5,48.2,86,63,43,30.19,30.04,8,2,15,0.08
2013-8-10,85.3,65.8,54.1,62.0,54.8,43.2,92,71,33,30.16,30.04,8,0,12,0.00
2013-8-11,80.1,66.0,55.9,60.9,51.8,41.9,87,63,34,30.13,30.07,8,1,12,0.00
2013-8-12,86.9,65.5,51.4,58.9,49.0,40.8,85,58,29,30.16,30.07,7,1,28,0.00
2013-8-13,87.8,66.8,51.8,60.1,50.1,43.8,84,58,29,30.19,30.07,10,1,16,0.00
2013-8-14,88.9,67.1,50.9,60.0,48.0,32.8,89,58,20,30.19,30.01,4,0,7,0.00
2013-8-15,92.8,67.1,49.5,59.3,46.5,38.3,81,51,18,30.13,29.99,4,0,6,0.00
2013-8-16,95.2,69.7,50.4,59.9,43.8,35.2,73,44,14,30.07,29.95,4,0,13,0.00
2013-8-17,91.4,72.3,54.9,60.9,46.5,37.5,69,42,18,30.13,29.99,8,1,13,0.00
2013-8-18,92.5,74.6,58.3,54.5,45.3,37.8,72,39,18,30.10,29.99,12,3,17,0.00
2013-8-19,94.3,71.4,50.7,52.3,42.4,35.4,74,40,14,30.10,29.95,11,2,22,0.00
2013-8-20,91.8,70.1,51.1,50.2,41.6,34.3,72,40,18,30.10,29.95,12,2,18,0.00
2013-8-21,86.7,69.0,51.8,45.3,38.3,33.4,64,36,19,30.16,30.04,6,1,10,0.00
2013-8-22,87.1,66.9,50.2,58.9,46.0,35.3,70,48,30,30.16,29.99,7,1,11,0.00
2013-8-23,80.4,69.1,58.1,59.0,52.7,46.0,84,58,32,30.01,29.87,8,2,14,0.00
2013-8-24,87.6,67.9,53.4,57.7,51.1,42.1,85,59,28,30.04,29.90,14,1,20,0.24
2013-8-25,86.0,67.1,53.2,56.9,51.0,44.8,92,61,29,30.07,29.93,7,1,12,0.00
2013-8-26,83.7,67.5,53.4,54.6,49.9,45.2,86,56,30,30.10,29.95,6,1,14,0.00
2013-8-27,87.1,67.6,52.2,55.5,48.8,39.7,84,55,28,30.13,29.95,5,1,11,0.00
2013-8-28,80.1,66.3,53.2,58.3,50.3,39.7,76,58,33,30.10,30.01,7,1,12,0.00
2013-8-29,88.7,68.1,50.7,62.3,52.1,42.0,89,62,27,30.16,29.99,5,1,10,0.00
2013-8-30,91.6,70.1,54.3,58.6,47.1,36.2,80,50,18,30.13,30.01,9,1,16,0.00
2013-8-31,88.3,68.9,52.2,53.2,43.2,34.9,62,41,22,30.19,30.07,5,1,8,0.00
2013-9-1,89.8,66.5,47.3,50.4,42.0,35.0,74,44,21,30.16,29.95,5,1,8,0.00
2013-9-2,77.2,65.6,50.5,53.3,45.2,37.2,76,50,30,30.04,29.95,4,0,9,0.00
2013-9-3,84.2,68.2,54.7,55.9,48.5,38.4,72,51,29,30.19,30.04,10,1,15,0.00
2013-9-4,91.6,71.7,59.7,61.5,56.8,50.3,89,63,30,30.22,30.10,4,1,9,0.00
2013-9-5,81.0,67.1,54.0,60.7,54.2,48.1,83,65,41,30.16,30.04,14,1,26,0.00
2013-9-6,77.5,66.9,62.4,63.7,60.2,54.6,91,80,47,30.13,30.01,6,2,16,0.28
2013-9-7,77.7,67.0,62.6,60.7,58.2,56.2,89,74,51,30.16,30.04,6,2,11,0.00
2013-9-8,72.7,63.5,56.8,61.9,51.6,41.4,100,87,40,30.10,29.99,6,1,15,0.04
2013-9-9,73.8,62.2,54.1,51.8,47.3,41.4,100,100,100,30.10,30.01,8,1,11,0.00
2013-9-10,65.7,65.7,65.7,51.8,51.8,51.8,100,100,100,30.19,30.07,0,0,4,0.00
2013-9-11,70.5,66.2,65.7,51.8,50.6,40.0,100,100,100,30.28,30.16,5,2,10,0.00
2013-9-12,70.5,70.5,70.5,40.0,40.0,40.0,100,100,100,30.31,30.28,3,0,4,0.00
2013-9-18,65.5,49.5,-3.1,50.6,36.9,-3.1,100,99,38,30.10,29.78,10,3,18,0.00
2013-9-19,61.3,61.3,61.3,36.2,36.2,36.2,100,100,100,30.19,30.10,4,0,6,0.00
2013-9-22,68.4,67.2,63.1,42.6,39.1,38.9,100,100,100,25.93,25.81,9,3,12,0.00
2013-9-23,68.4,68.4,68.4,38.9,38.9,38.9,100,100,100,26.13,25.93,12,4,22,0.00
2013-9-24,68.4,68.4,68.4,38.9,38.9,38.9,100,100,100,26.10,25.96,5,1,7,0.31
2013-9-25,68.4,20.7,-3.1,46.9,17.7,-3.1,100,96,75,25.96,25.87,6,2,10,0.00
2013-9-26,42.6,42.1,42.1,36.4,35.4,35.4,100,98,76,26.19,25.99,5,1,8,0.00
2013-9-27,42.1,42.1,42.1,35.4,35.4,35.4,100,100,100,26.19,26.16,0,0,3,0.00